Terminal Aerodrome Forecast
Issued by NWS Atlanta, GA

Home | Current Version | Previous Version | Text Only | Print | Product List | Glossary On
Versions: 1 2 3 4 5 6 7 8 9 10 11 12 13 14 15 16 17 18 19 20 21 22 23 24 25 26 27 28 29 30 31 32 33 34 35 36 37 38 39 40 41 42 43 44
895
FTUS42 KFFC 161756 AAA
TAFAHN
TAF AMD
KAHN 161756Z 1618/1718 09007KT P6SM SCT025 BKN070
      TEMPO 1618/1622 BKN025
     FM170300 10003KT P6SM BKN025 BKN060
     FM170600 11003KT 5SM BR OVC022
     FM170900 14002KT 4SM BR OVC011
     FM171400 18004KT 6SM BR OVC015=

USA.gov is the U.S. government's official web portal to all federal, state and local government web resources and services.